Westchase, Florida
Current Conditions -  °F | °C
As of 2:53 AM on Tuesday 21 Oct 2014 (Local Time) from KTPA Reporting Station
Overcast Overcast  
Wind Chill: 72°   Ceiling: 15000
Heat Index: 72°   Visibility: 10mi
Dew Point: 62°   Wind: 5mph
Humidity: 71%   Direction: 10°N
Pressure: 29.95"   Gusts: NA
Location:  28.0595°N, 82.6106°W
Report Text: KTPA 210653Z 01004KT 10SM BKN150 OVC240 22/17 A2995 RMK AO2 SLP141 T02220167
Loading
Personal Weather Stations






























Interactive Weather Map
Tropical Storm Tracking
New forecast layout! Learn more

10-Day Weather Forecast

Advertisements
Track Severe Weather on mobile